Time;durP1;ratioP1;P1;durP2;ratioP2;P2;SDS_P1;SDS_P2;PMS_P1;PMS_P2;Temp;Humidity;BMP_temperature;BMP_pressure;BME280_temperature;BME280_humidity;BME280_pressure;Samples;Min_cycle;Max_cycle;Signal;HPM_P1;HPM_P2
2023/09/09 08:11:06;;;;;;;1.80;1.20;;;;;;;29.21;36.11;99626.47;5125615;27;20556;-61
2023/09/09 08:13:33;;;;;;;4.35;1.35;;;;;;;29.48;34.52;99622.50;5125850;28;20204;-61
2023/09/09 08:15:59;;;;;;;1.58;1.33;;;;;;;29.69;34.43;99607.28;5125966;28;20192;-61
2023/09/09 08:18:26;;;;;;;3.53;1.40;;;;;;;29.76;35.62;99615.91;5125361;28;20669;-61
2023/09/09 08:20:53;;;;;;;3.72;1.48;;;;;;;29.91;33.34;99616.31;5125606;28;20597;-61
2023/09/09 08:23:22;;;;;;;2.67;1.30;;;;;;;29.81;32.36;99618.66;5125867;28;20209;-61
2023/09/09 08:25:49;;;;;;;1.83;1.30;;;;;;;29.97;33.37;99618.03;5125693;28;20280;-61
2023/09/09 08:28:17;;;;;;;1.98;1.38;;;;;;;30.13;33.33;99627.13;5125620;28;20197;-61
2023/09/09 08:30:44;;;;;;;2.25;1.40;;;;;;;30.23;33.39;99616.06;5125346;28;20208;-61
2023/09/09 08:33:10;;;;;;;1.50;1.20;;;;;;;29.99;29.57;99621.25;5125374;28;20196;-61
2023/09/09 08:35:37;;;;;;;1.58;1.38;;;;;;;30.03;33.22;99615.53;5125473;28;20681;-62
2023/09/09 08:38:04;;;;;;;4.70;1.40;;;;;;;30.32;35.55;99609.44;5125974;28;20676;-62
2023/09/09 08:40:38;;;;;;;3.10;1.50;;;;;;;30.41;30.87;99613.34;5125236;28;20229;-62
2023/09/09 08:43:14;;;;;;;3.58;1.60;;;;;;;30.14;32.97;99610.28;5125926;27;20288;-61
2023/09/09 08:45:53;;;;;;;2.15;1.60;;;;;;;30.31;33.00;99605.19;5125435;28;20212;-61
2023/09/09 08:48:24;;;;;;;5.13;1.50;;;;;;;30.20;34.52;99598.03;5125588;28;20196;-61
2023/09/09 08:50:54;;;;;;;2.40;1.50;;;;;;;30.51;36.10;99602.22;5125315;28;20204;-61
2023/09/09 08:53:22;;;;;;;2.72;1.70;;;;;;;30.62;35.45;99595.34;5125613;28;20417;-61
2023/09/09 08:55:50;;;;;;;4.00;1.58;;;;;;;30.80;34.98;99600.53;5125247;28;20201;-61
2023/09/09 08:58:17;;;;;;;3.63;1.80;;;;;;;30.94;32.43;99592.38;5125034;28;20200;-61
2023/09/09 09:00:46;;;;;;;2.88;1.60;;;;;;;30.84;33.86;99596.41;5124992;27;20236;-61
2023/09/09 09:03:14;;;;;;;6.63;1.77;;;;;;;30.90;33.21;99592.84;5125092;28;20208;-61
2023/09/09 09:05:43;;;;;;;3.70;1.70;;;;;;;31.13;35.70;99591.19;5125058;28;20204;-61
2023/09/09 09:08:09;;;;;;;1.90;1.60;;;;;;;31.22;33.86;99586.34;5124978;28;20208;-61
2023/09/09 09:10:37;;;;;;;4.35;1.60;;;;;;;31.31;33.87;99585.75;5118665;28;20198;-61
2023/09/09 09:13:04;;;;;;;2.38;1.58;;;;;;;31.58;32.51;99588.66;5111171;28;20197;-61
2023/09/09 09:15:32;;;;;;;4.13;1.90;;;;;;;31.69;32.89;99587.00;5111360;28;20197;-61
2023/09/09 09:18:01;;;;;;;6.60;1.85;;;;;;;31.77;35.59;99584.00;5111110;28;20251;-61
2023/09/09 09:20:29;;;;;;;2.60;1.80;;;;;;;31.82;29.97;99580.63;5110799;28;20627;-61
2023/09/09 09:22:59;;;;;;;2.97;1.58;;;;;;;31.76;33.87;99582.38;5110833;28;20189;-61
2023/09/09 09:25:27;;;;;;;3.25;1.50;;;;;;;31.40;30.55;99588.06;5110726;28;20254;-61
2023/09/09 09:27:57;;;;;;;7.90;1.95;;;;;;;31.65;31.50;99585.88;5110897;28;20205;-61
2023/09/09 09:30:25;;;;;;;2.67;1.73;;;;;;;31.67;30.32;99583.78;5110696;28;20243;-61
2023/09/09 09:32:53;;;;;;;1.83;1.40;;;;;;;31.39;28.68;99583.78;5110915;28;20213;-61
2023/09/09 09:35:25;;;;;;;3.13;1.50;;;;;;;30.89;31.12;99583.31;5110792;28;20233;-61
2023/09/09 09:37:53;;;;;;;6.43;1.42;;;;;;;31.06;32.99;99578.09;5110915;28;20224;-61
2023/09/09 09:40:20;;;;;;;2.83;1.73;;;;;;;31.34;34.59;99580.00;5110818;28;20232;-61
2023/09/09 09:42:47;;;;;;;1.42;1.30;;;;;;;31.56;33.69;99571.41;5110354;28;20197;-61
2023/09/09 09:45:15;;;;;;;1.75;1.38;;;;;;;31.70;32.51;99571.94;5110604;28;20200;-61
2023/09/09 09:47:46;;;;;;;2.50;1.52;;;;;;;31.41;28.77;99579.06;5110844;28;20634;-61
2023/09/09 09:50:22;;;;;;;2.20;1.58;;;;;;;31.67;33.33;99562.63;5110898;28;20193;-61
2023/09/09 09:52:57;;;;;;;1.85;1.40;;;;;;;31.61;30.94;99568.88;5110365;28;20207;-61
2023/09/09 09:55:24;;;;;;;3.72;1.60;;;;;;;31.47;29.42;99567.56;5110373;28;20205;-61
2023/09/09 09:57:54;;;;;;;2.45;1.40;;;;;;;31.78;30.22;99568.91;5110519;28;20205;-61
2023/09/09 10:00:22;;;;;;;1.85;1.42;;;;;;;31.88;29.98;99568.28;5110188;28;20278;-61
2023/09/09 10:02:52;;;;;;;5.93;1.60;;;;;;;31.85;29.46;99569.56;5110145;28;20704;-61
2023/09/09 10:05:22;;;;;;;1.98;1.55;;;;;;;31.16;29.13;99561.66;5110352;28;20578;-61
2023/09/09 10:07:54;;;;;;;2.80;1.60;;;;;;;31.21;28.60;99561.75;5110106;28;20225;-61
2023/09/09 10:10:23;;;;;;;1.80;1.40;;;;;;;31.28;28.85;99559.78;5109969;28;20596;-61
2023/09/09 10:12:53;;;;;;;2.47;1.65;;;;;;;31.28;31.04;99559.78;5110179;28;20201;-61
2023/09/09 10:15:20;;;;;;;5.40;1.70;;;;;;;31.18;26.11;99556.94;5109968;28;20267;-61
2023/09/09 10:17:49;;;;;;;2.40;1.40;;;;;;;31.23;30.35;99556.25;5110167;28;20710;-61
2023/09/09 10:20:18;;;;;;;1.63;1.40;;;;;;;31.34;29.31;99548.28;5109654;28;20237;-61
2023/09/09 10:22:45;;;;;;;2.47;1.40;;;;;;;31.73;30.17;99550.31;5108674;28;20404;-61
2023/09/09 10:25:14;;;;;;;5.72;1.55;;;;;;;31.78;29.03;99543.28;5109714;28;20202;-61
2023/09/09 10:27:42;;;;;;;3.65;1.42;;;;;;;31.77;27.92;99554.09;5109915;28;20209;-61
2023/09/09 10:30:10;;;;;;;1.52;1.25;;;;;;;31.95;30.22;99550.47;5109699;28;20197;-61
2023/09/09 10:32:38;;;;;;;1.77;1.30;;;;;;;31.82;29.85;99548.09;5109883;28;20641;-61
2023/09/09 10:35:06;;;;;;;2.70;1.40;;;;;;;31.92;28.64;99550.94;5109794;28;20201;-61
2023/09/09 10:37:35;;;;;;;2.03;1.67;;;;;;;31.89;27.10;99551.38;5109784;28;20236;-61
2023/09/09 10:40:04;;;;;;;2.38;1.65;;;;;;;31.79;28.01;99544.91;5109382;28;20264;-61
2023/09/09 10:42:36;;;;;;;4.22;1.77;;;;;;;31.28;28.32;99543.94;5109466;28;20197;-61
2023/09/09 10:45:24;;;;;;;2.45;1.60;;;;;;;31.27;28.43;99537.06;5109831;28;20197;-61
2023/09/09 10:47:54;;;;;;;4.18;1.48;;;;;;;31.51;30.85;99537.00;5109683;28;20216;-61
2023/09/09 10:50:21;;;;;;;2.40;1.50;;;;;;;31.50;28.22;99540.66;5109772;28;20665;-61
2023/09/09 10:52:52;;;;;;;6.15;1.67;;;;;;;31.63;29.25;99537.72;5109568;28;20253;-61
2023/09/09 10:55:29;;;;;;;3.67;1.70;;;;;;;31.42;28.00;99528.63;5109225;28;20241;-62
2023/09/09 10:58:00;;;;;;;1.90;1.40;;;;;;;31.33;27.85;99525.53;5108992;28;20201;-61
2023/09/09 11:00:39;;;;;;;2.90;1.50;;;;;;;31.43;29.38;99529.44;5107957;28;20634;-62
2023/09/09 11:03:10;;;;;;;7.07;1.58;;;;;;;31.51;27.68;99526.41;5107282;28;20223;-61
2023/09/09 11:05:58;;;;;;;1.85;1.52;;;;;;;31.51;28.24;99523.78;5108900;28;20205;-61
2023/09/09 11:08:29;;;;;;;1.63;1.42;;;;;;;31.63;28.45;99527.16;5109290;28;20396;-61
2023/09/09 11:11:06;;;;;;;5.72;1.67;;;;;;;31.54;28.70;99516.16;5108944;28;20294;-61
2023/09/09 11:13:51;;;;;;;2.33;1.70;;;;;;;31.10;26.52;99517.72;5108813;28;20190;-61
2023/09/09 11:16:31;;;;;;;1.67;1.40;;;;;;;31.29;29.43;99507.75;5109097;28;20190;-61
2023/09/09 11:18:59;;;;;;;3.60;1.95;;;;;;;31.16;28.06;99508.03;5108830;28;20654;-61
2023/09/09 11:21:27;;;;;;;2.30;1.63;;;;;;;31.35;29.34;99507.63;5108661;28;20268;-61
2023/09/09 11:23:54;;;;;;;3.40;1.70;;;;;;;31.72;31.17;99501.13;5108755;28;20209;-61
2023/09/09 11:26:22;;;;;;;3.95;1.85;;;;;;;31.85;30.26;99500.00;5108743;28;20201;-61
2023/09/09 11:28:50;;;;;;;5.85;2.15;;;;;;;31.70;29.18;99498.72;5108325;28;20645;-61
2023/09/09 11:31:18;;;;;;;2.33;1.70;;;;;;;31.86;30.40;99499.78;5108686;28;20217;-61
2023/09/09 11:33:45;;;;;;;2.95;1.70;;;;;;;31.88;29.93;99496.88;5108404;28;20583;-61
2023/09/09 11:36:16;;;;;;;3.95;1.73;;;;;;;31.85;27.49;99494.72;5108368;28;20204;-62
2023/09/09 11:38:43;;;;;;;2.65;1.70;;;;;;;32.00;29.50;99495.00;5108739;28;20300;-61
2023/09/09 11:41:10;;;;;;;3.10;1.88;;;;;;;32.05;29.69;99488.97;5108247;28;20229;-61
2023/09/09 11:43:37;;;;;;;3.03;1.80;;;;;;;32.14;30.19;99483.03;5108270;28;20201;-61
2023/09/09 11:46:05;;;;;;;2.45;1.73;;;;;;;32.19;29.19;99480.47;5108352;28;20201;-61
2023/09/09 11:48:32;;;;;;;1.80;1.58;;;;;;;32.24;27.89;99477.88;5107984;28;20197;-61
2023/09/09 11:51:01;;;;;;;2.08;1.63;;;;;;;32.07;27.77;99469.19;5107397;28;20209;-61
2023/09/09 11:53:28;;;;;;;2.90;1.67;;;;;;;32.10;28.01;99473.97;5106886;28;20201;-61
2023/09/09 11:55:56;;;;;;;1.85;1.50;;;;;;;32.11;26.44;99472.94;5107922;28;20197;-61
2023/09/09 11:58:23;;;;;;;2.63;1.60;;;;;;;32.16;28.81;99470.34;5108353;28;20318;-61
2023/09/09 12:00:50;;;;;;;3.00;1.50;;;;;;;31.99;28.13;99469.56;5107936;28;20225;-61
2023/09/09 12:03:21;;;;;;;3.03;1.90;;;;;;;31.99;28.53;99459.00;5108231;28;20205;-61
2023/09/09 12:05:51;;;;;;;5.57;1.95;;;;;;;31.84;28.40;99461.38;5108029;28;20220;-61
2023/09/09 12:08:18;;;;;;;3.42;1.90;;;;;;;31.52;27.86;99459.28;5108106;28;20258;-61
2023/09/09 12:10:45;;;;;;;4.07;1.58;;;;;;;31.71;29.62;99454.59;5107982;28;20642;-61
2023/09/09 12:13:13;;;;;;;2.60;1.60;;;;;;;31.80;28.68;99456.59;5108198;28;20197;-61
2023/09/09 12:15:42;;;;;;;3.75;2.00;;;;;;;31.54;28.38;99446.66;5107833;28;20689;-61
2023/09/09 12:18:13;;;;;;;2.75;1.77;;;;;;;31.41;28.33;99446.94;5108048;28;20209;-61
2023/09/09 12:21:07;;;;;;;2.13;1.52;;;;;;;31.51;28.64;99452.41;5107863;28;20778;-61
2023/09/09 12:23:35;;;;;;;2.28;1.80;;;;;;;31.47;28.60;99446.78;5088788;28;20215;-61
2023/09/09 12:26:10;;;;;;;1.85;1.42;;;;;;;31.17;27.05;99446.25;5108259;28;20197;-61
2023/09/09 12:28:37;;;;;;;3.63;1.98;;;;;;;30.97;28.34;99444.03;5108105;28;20208;-61
2023/09/09 12:31:04;;;;;;;2.08;1.58;;;;;;;30.83;26.85;99446.94;5108291;28;20202;-61
2023/09/09 12:33:38;;;;;;;3.70;1.80;;;;;;;31.04;30.58;99452.59;5107900;28;20731;-61
2023/09/09 12:36:07;;;;;;;2.80;1.80;;;;;;;31.20;29.17;99446.56;5108164;28;20193;-61
2023/09/09 12:38:39;;;;;;;1.58;1.48;;;;;;;31.31;28.32;99443.06;5107921;28;20233;-61
2023/09/09 12:41:06;;;;;;;3.55;2.00;;;;;;;31.39;30.03;99438.44;5108170;28;20755;-61
2023/09/09 12:43:34;;;;;;;3.08;1.98;;;;;;;31.22;27.06;99433.94;5108083;28;20220;-61
2023/09/09 12:46:04;;;;;;;3.33;2.10;;;;;;;31.27;29.01;99436.66;5109324;28;20197;-61
2023/09/09 12:48:32;;;;;;;2.03;1.50;;;;;;;31.16;26.92;99437.53;5111666;28;20185;-61
2023/09/09 12:51:00;;;;;;;2.80;1.92;;;;;;;31.15;28.09;99432.47;5111830;28;20201;-61
2023/09/09 12:53:28;;;;;;;3.10;1.80;;;;;;;31.07;29.16;99433.66;5111630;28;20865;-61
2023/09/09 12:55:55;;;;;;;2.22;1.67;;;;;;;31.02;26.00;99425.63;5111802;28;20204;-61
2023/09/09 12:58:22;;;;;;;2.00;1.40;;;;;;;30.99;28.01;99421.63;5111912;28;20201;-61
2023/09/09 13:00:49;;;;;;;3.85;1.80;;;;;;;31.26;26.92;99419.19;5111129;28;20228;-61
2023/09/09 13:03:15;;;;;;;2.92;1.40;;;;;;;31.55;29.63;99424.44;5111653;28;20194;-61
2023/09/09 13:05:42;;;;;;;2.78;1.90;;;;;;;31.73;27.94;99424.19;5111263;28;20208;-61
2023/09/09 13:08:09;;;;;;;2.53;1.58;;;;;;;31.87;30.34;99423.88;5111329;28;20443;-61
2023/09/09 13:10:37;;;;;;;2.78;1.70;;;;;;;31.88;28.85;99420.97;5111198;28;20252;-61
2023/09/09 13:13:04;;;;;;;3.00;1.85;;;;;;;31.72;28.25;99416.53;5111146;28;20201;-61
2023/09/09 13:15:31;;;;;;;2.75;1.90;;;;;;;31.51;28.59;99408.28;5111264;28;20221;-61
2023/09/09 13:17:58;;;;;;;3.03;1.58;;;;;;;31.18;28.82;99411.66;5111512;28;20198;-61
2023/09/09 13:20:24;;;;;;;1.85;1.60;;;;;;;31.09;29.48;99407.78;5111218;28;20233;-61
2023/09/09 13:22:51;;;;;;;6.78;1.90;;;;;;;30.97;27.83;99409.69;5111070;28;20201;-61
2023/09/09 13:25:18;;;;;;;2.05;1.50;;;;;;;30.82;28.95;99403.09;5111266;28;20194;-61
2023/09/09 13:27:47;;;;;;;2.78;1.55;;;;;;;30.65;27.42;99403.00;5111058;28;20196;-61
2023/09/09 13:30:14;;;;;;;3.78;1.70;;;;;;;30.56;28.82;99403.59;5110906;28;20202;-61
2023/09/09 13:32:41;;;;;;;4.40;1.77;;;;;;;30.66;30.36;99403.78;5110787;28;20201;-61
2023/09/09 13:35:08;;;;;;;2.60;1.55;;;;;;;30.76;29.57;99395.28;5110671;28;20588;-61
2023/09/09 13:37:35;;;;;;;2.30;1.70;;;;;;;30.83;29.82;99404.69;5110682;28;20200;-61
2023/09/09 13:40:02;;;;;;;2.20;1.70;;;;;;;30.74;28.35;99398.16;5110896;28;20224;-61
2023/09/09 13:42:29;;;;;;;3.55;1.90;;;;;;;30.71;28.44;99395.97;5110540;28;20280;-61
2023/09/09 13:44:57;;;;;;;2.20;1.67;;;;;;;30.47;27.93;99386.53;5110466;28;20201;-61
2023/09/09 13:47:24;;;;;;;2.00;1.70;;;;;;;30.66;27.41;99385.31;5110777;28;20266;-62
2023/09/09 13:49:51;;;;;;;2.05;1.70;;;;;;;30.65;28.56;99381.88;5110302;28;20201;-61
2023/09/09 13:52:18;;;;;;;2.15;1.52;;;;;;;30.68;28.31;99388.53;5110439;28;20666;-62
2023/09/09 13:54:46;;;;;;;6.00;1.52;;;;;;;30.42;28.02;99382.75;5110547;28;20202;-61
2023/09/09 13:57:13;;;;;;;2.45;1.75;;;;;;;30.35;28.29;99379.44;5110216;28;20671;-61
2023/09/09 13:59:43;;;;;;;4.00;1.73;;;;;;;30.24;28.23;99385.56;5110247;28;20229;-61
2023/09/09 14:02:11;;;;;;;2.30;1.63;;;;;;;30.30;29.29;99386.47;5110350;28;20225;-61
2023/09/09 14:04:38;;;;;;;5.35;1.83;;;;;;;30.18;28.52;99376.69;5110003;28;20209;-61
2023/09/09 14:07:05;;;;;;;3.53;1.77;;;;;;;29.93;28.48;99384.88;5110202;28;20568;-61
2023/09/09 14:09:32;;;;;;;2.05;1.48;;;;;;;30.13;28.93;99381.84;5110351;28;20205;-61
2023/09/09 14:11:59;;;;;;;2.65;1.48;;;;;;;30.01;27.53;99383.72;5110202;28;20209;-61
2023/09/09 14:14:26;;;;;;;2.83;1.80;;;;;;;30.23;29.74;99383.97;5110021;28;20225;-61
2023/09/09 14:16:55;;;;;;;1.85;1.40;;;;;;;30.08;28.71;99380.94;5109877;28;20201;-61
2023/09/09 14:19:23;;;;;;;1.60;1.50;;;;;;;30.07;27.57;99369.59;5109805;28;20198;-61
2023/09/09 14:21:50;;;;;;;1.83;1.45;;;;;;;29.96;28.19;99373.88;5110109;28;20229;-61
2023/09/09 14:24:17;;;;;;;1.95;1.50;;;;;;;30.15;28.57;99379.81;5109877;28;20208;-61
2023/09/09 14:26:44;;;;;;;2.40;1.60;;;;;;;30.26;28.67;99366.88;5109963;28;20201;-61
2023/09/09 14:29:11;;;;;;;3.65;1.70;;;;;;;30.22;27.93;99372.59;5109686;28;20197;-61
2023/09/09 14:31:38;;;;;;;2.67;1.70;;;;;;;30.01;28.25;99362.63;5109575;28;20217;-61
2023/09/09 14:34:05;;;;;;;2.47;1.50;;;;;;;29.77;28.12;99369.75;5109699;28;20193;-61
2023/09/09 14:36:33;;;;;;;3.72;1.70;;;;;;;29.72;28.78;99367.78;5109583;28;20701;-61
2023/09/09 14:39:00;;;;;;;3.15;2.00;;;;;;;29.77;29.66;99359.19;5109610;28;20206;-61
2023/09/09 14:41:26;;;;;;;3.00;1.88;;;;;;;29.61;29.61;99352.72;5109486;28;20237;-61
2023/09/09 14:43:53;;;;;;;1.85;1.40;;;;;;;29.62;29.29;99356.19;5109511;28;20221;-62
2023/09/09 14:46:23;;;;;;;3.53;1.70;;;;;;;29.58;28.59;99360.31;5109241;28;20194;-61
2023/09/09 14:49:00;;;;;;;6.82;1.92;;;;;;;29.39;30.03;99357.78;5109456;28;20204;-61
2023/09/09 14:51:29;;;;;;;2.33;1.80;;;;;;;29.39;29.88;99360.41;5109311;28;20459;-61
2023/09/09 14:53:57;;;;;;;3.58;1.60;;;;;;;29.28;29.48;99361.19;5109265;27;20205;-61
2023/09/09 14:56:24;;;;;;;2.45;1.58;;;;;;;29.23;30.48;99353.16;5109405;28;20311;-61
2023/09/09 14:58:51;;;;;;;2.55;1.38;;;;;;;29.21;29.37;99363.13;5109252;28;20197;-61
2023/09/09 15:01:18;;;;;;;2.80;1.67;;;;;;;29.18;29.39;99364.38;5109062;28;20225;-61
2023/09/09 15:03:44;;;;;;;2.97;1.80;;;;;;;29.09;29.67;99363.91;5108970;28;20228;-63
2023/09/09 15:06:12;;;;;;;2.42;1.70;;;;;;;29.01;30.25;99361.53;5109183;28;20204;-63
2023/09/09 15:08:38;;;;;;;3.03;1.90;;;;;;;28.89;30.65;99365.97;5108333;28;20197;-63
2023/09/09 15:11:07;;;;;;;2.40;1.70;;;;;;;28.77;30.73;99359.84;5109189;28;20620;-63
2023/09/09 15:13:33;;;;;;;2.35;1.60;;;;;;;28.64;30.20;99361.63;5108832;28;20637;-63
2023/09/09 15:16:04;;;;;;;17.83;7.53;;;;;;;28.73;29.75;99363.97;5108978;28;20204;-63
2023/09/09 15:18:31;;;;;;;9.10;3.90;;;;;;;28.67;29.50;99361.19;5108806;28;20194;-63
2023/09/09 15:20:58;;;;;;;8.73;3.67;;;;;;;28.58;30.66;99357.25;5108840;28;20229;-62
2023/09/09 15:23:25;;;;;;;7.13;3.40;;;;;;;28.55;31.03;99357.69;5108688;28;20204;-63
2023/09/09 15:25:52;;;;;;;2.53;1.92;;;;;;;28.48;30.58;99351.72;5108597;28;20197;-62
2023/09/09 15:28:20;;;;;;;11.60;2.30;;;;;;;28.47;31.54;99352.72;5108554;28;20194;-62
2023/09/09 15:30:47;;;;;;;3.92;2.03;;;;;;;28.42;31.13;99352.59;5108528;28;20682;-62
2023/09/09 15:33:14;;;;;;;5.55;2.35;;;;;;;28.43;30.52;99354.22;5108478;28;20685;-62
2023/09/09 15:35:41;;;;;;;3.15;2.17;;;;;;;28.39;31.21;99353.81;5108430;28;20198;-62
2023/09/09 15:38:08;;;;;;;4.60;2.33;;;;;;;28.32;31.25;99352.28;5108535;28;20198;-62
2023/09/09 15:40:38;;;;;;;6.00;2.50;;;;;;;28.21;31.46;99351.19;5108262;28;20714;-62
2023/09/09 15:43:06;;;;;;;3.97;1.80;;;;;;;28.15;31.45;99350.22;5108783;28;20201;-63
2023/09/09 15:45:34;;;;;;;1.80;1.45;;;;;;;28.09;30.60;99353.72;5108342;28;20201;-62
2023/09/09 15:48:03;;;;;;;2.45;1.58;;;;;;;27.96;30.88;99359.94;5108477;28;20563;-62
2023/09/09 15:50:29;;;;;;;2.78;1.73;;;;;;;27.88;31.96;99359.41;5108352;28;20200;-62
2023/09/09 15:52:56;;;;;;;1.90;1.63;;;;;;;27.81;33.07;99363.91;5108398;28;20300;-62
2023/09/09 15:55:23;;;;;;;1.95;1.50;;;;;;;27.74;33.66;99356.88;5108190;28;20205;-62
2023/09/09 15:57:50;;;;;;;2.63;1.80;;;;;;;27.65;33.43;99368.69;5107906;28;20594;-62
2023/09/09 16:00:17;;;;;;;1.95;1.73;;;;;;;27.56;33.54;99363.91;5108426;28;20201;-62
2023/09/09 16:02:45;;;;;;;3.85;1.70;;;;;;;27.44;33.46;99363.81;5108304;28;20229;-62
2023/09/09 16:05:12;;;;;;;2.28;1.77;;;;;;;27.12;33.73;99365.63;5108285;28;20198;-63
2023/09/09 16:07:40;;;;;;;3.90;1.77;;;;;;;27.03;34.67;99372.94;5108279;28;20209;-62
2023/09/09 16:10:08;;;;;;;3.28;1.98;;;;;;;26.98;34.72;99364.88;5108211;28;20286;-63
2023/09/09 16:12:35;;;;;;;6.78;1.80;;;;;;;26.85;35.45;99366.56;5108265;28;20194;-62
2023/09/09 16:15:04;;;;;;;2.85;1.80;;;;;;;26.83;35.49;99365.97;5107963;28;20218;-62
2023/09/09 16:17:30;;;;;;;6.78;2.00;;;;;;;26.76;35.86;99365.22;5108105;28;20217;-62
2023/09/09 16:19:59;;;;;;;6.05;1.90;;;;;;;26.67;35.96;99360.38;5107903;28;20197;-62
2023/09/09 16:22:25;;;;;;;3.33;2.08;;;;;;;26.54;36.59;99361.25;5112032;28;20760;-62
2023/09/09 16:24:52;;;;;;;2.40;1.75;;;;;;;26.41;36.44;99362.91;5112094;28;20193;-62
2023/09/09 16:27:19;;;;;;;5.15;2.10;;;;;;;26.26;36.63;99364.94;5112110;28;20198;-62
2023/09/09 16:29:46;;;;;;;3.30;1.77;;;;;;;26.11;36.91;99367.00;5111890;28;20735;-62
2023/09/09 16:32:13;;;;;;;2.40;1.92;;;;;;;26.02;37.31;99361.16;5112151;28;20216;-62
2023/09/09 16:34:40;;;;;;;3.22;1.85;;;;;;;25.91;37.80;99373.06;5112079;28;20201;-62
2023/09/09 16:37:08;;;;;;;4.10;2.03;;;;;;;25.79;37.82;99369.44;5112119;28;20205;-62
2023/09/09 16:39:35;;;;;;;11.02;1.92;;;;;;;25.67;38.29;99371.06;5112063;28;20713;-63
2023/09/09 16:42:02;;;;;;;2.88;1.67;;;;;;;25.55;38.58;99368.22;5111971;28;20239;-62
2023/09/09 16:44:29;;;;;;;4.68;1.90;;;;;;;25.45;38.44;99371.25;5111763;28;20213;-62
2023/09/09 16:46:55;;;;;;;3.92;1.90;;;;;;;25.33;38.29;99375.44;5112027;28;20197;-62
2023/09/09 16:49:22;;;;;;;3.17;2.03;;;;;;;25.24;38.11;99377.44;5111935;28;20197;-62
2023/09/09 16:51:49;;;;;;;4.78;2.17;;;;;;;25.12;38.35;99373.78;5111493;28;20197;-62
2023/09/09 16:54:17;;;;;;;5.78;3.42;;;;;;;25.02;38.51;99376.78;5111425;28;20208;-62
2023/09/09 16:56:45;;;;;;;6.20;2.97;;;;;;;24.93;38.76;99379.75;5111521;28;20198;-62
2023/09/09 16:59:12;;;;;;;4.90;2.47;;;;;;;24.84;39.04;99386.97;5111475;28;20214;-62
2023/09/09 17:01:39;;;;;;;5.78;2.30;;;;;;;24.74;38.89;99391.78;5111064;28;20904;-62
2023/09/09 17:04:06;;;;;;;6.35;1.92;;;;;;;24.62;39.25;99383.69;5111556;28;20229;-62
2023/09/09 17:06:33;;;;;;;2.20;1.70;;;;;;;24.53;38.98;99387.47;5111697;28;20198;-62
2023/09/09 17:08:59;;;;;;;3.60;2.00;;;;;;;24.44;39.24;99392.03;5111097;28;20205;-62
2023/09/09 17:11:28;;;;;;;3.88;1.73;;;;;;;24.35;39.29;99383.53;5111541;28;20674;-62
2023/09/09 17:13:56;;;;;;;2.03;1.70;;;;;;;24.28;39.63;99392.31;5110906;28;20204;-62
2023/09/09 17:16:23;;;;;;;3.35;1.60;;;;;;;24.18;39.91;99390.06;5111201;28;20706;-62
2023/09/09 17:18:49;;;;;;;3.33;1.88;;;;;;;24.09;40.36;99389.41;5110968;28;20198;-62
2023/09/09 17:21:16;;;;;;;4.70;1.83;;;;;;;24.02;40.13;99398.97;5110943;28;20208;-62
2023/09/09 17:23:43;;;;;;;3.55;1.90;;;;;;;23.95;40.29;99408.59;5110851;28;20201;-62
2023/09/09 17:26:10;;;;;;;2.03;1.55;;;;;;;23.87;40.91;99417.34;5111274;28;20201;-62
2023/09/09 17:28:38;;;;;;;2.42;1.70;;;;;;;23.89;41.30;99414.56;5109700;28;20822;-62
2023/09/09 17:31:07;;;;;;;3.47;1.75;;;;;;;23.90;41.35;99416.16;5110386;28;20198;-63
2023/09/09 17:33:34;;;;;;;7.30;3.35;;;;;;;23.82;41.56;99421.53;5110777;28;20210;-62
2023/09/09 17:36:00;;;;;;;14.77;6.00;;;;;;;23.75;42.23;99423.28;5110280;28;21143;-62
2023/09/09 17:38:27;;;;;;;24.30;8.00;;;;;;;23.69;41.80;99420.38;5111061;28;20198;-62
2023/09/09 17:40:54;;;;;;;16.95;6.85;;;;;;;23.63;42.57;99423.75;5109656;28;20734;-62
2023/09/09 17:43:21;;;;;;;15.05;5.57;;;;;;;23.59;42.67;99425.13;5110728;28;20284;-62
2023/09/09 17:45:49;;;;;;;5.75;3.03;;;;;;;23.53;42.10;99435.50;5110502;27;20751;-62
2023/09/09 17:48:16;;;;;;;4.68;2.53;;;;;;;23.40;41.83;99431.75;5110414;28;20201;-62
2023/09/09 17:50:43;;;;;;;4.45;2.28;;;;;;;23.32;42.78;99441.50;5110351;28;20208;-62
2023/09/09 17:53:10;;;;;;;5.43;2.00;;;;;;;23.21;42.97;99435.78;5110507;28;20604;-62
2023/09/09 17:55:37;;;;;;;3.25;2.08;;;;;;;23.14;43.22;99437.50;5110664;28;20197;-62
2023/09/09 17:58:04;;;;;;;3.53;1.90;;;;;;;23.04;43.19;99432.59;5110588;28;20226;-62
2023/09/09 18:00:31;;;;;;;9.63;2.40;;;;;;;22.97;43.63;99436.91;5110344;28;20588;-62
2023/09/09 18:02:59;;;;;;;3.00;2.05;;;;;;;22.91;43.78;99436.78;5110220;28;20240;-62
2023/09/09 18:05:26;;;;;;;5.97;2.58;;;;;;;22.86;43.90;99444.34;5110460;28;20228;-62
2023/09/09 18:07:52;;;;;;;4.60;2.58;;;;;;;22.80;44.23;99445.88;5110034;28;20204;-62
2023/09/09 18:10:19;;;;;;;11.07;2.83;;;;;;;22.76;44.74;99450.66;5109977;28;20236;-62
2023/09/09 18:12:46;;;;;;;3.35;2.30;;;;;;;22.71;44.48;99457.38;5109974;27;20209;-62
2023/09/09 18:15:13;;;;;;;4.27;2.23;;;;;;;22.66;45.18;99465.75;5110151;28;20189;-62
2023/09/09 18:17:40;;;;;;;3.13;2.13;;;;;;;22.61;46.23;99460.28;5109778;28;20197;-61
2023/09/09 18:20:09;;;;;;;3.50;1.90;;;;;;;22.53;45.34;99462.97;5110036;28;20498;-61
2023/09/09 18:22:37;;;;;;;2.73;1.57;;;;;;;22.48;45.80;99460.88;5109729;28;20236;-62
2023/09/09 18:25:04;;;;;;;4.80;2.37;;;;;;;22.37;43.00;99461.34;5109896;28;20626;-62
2023/09/09 18:27:31;;;;;;;4.87;2.20;;;;;;;22.26;43.89;99470.38;5109708;28;20201;-62
2023/09/09 18:29:59;;;;;;;2.57;1.90;;;;;;;22.22;44.91;99468.31;5109518;28;20228;-62
2023/09/09 18:32:26;;;;;;;3.83;2.10;;;;;;;22.14;46.06;99471.78;5109774;28;20748;-62
2023/09/09 18:34:53;;;;;;;3.40;2.07;;;;;;;22.08;45.75;99473.28;5109403;28;20639;-62
2023/09/09 18:37:22;;;;;;;3.33;1.80;;;;;;;22.06;46.54;99474.44;5109539;28;20207;-62
2023/09/09 18:39:48;;;;;;;3.43;2.17;;;;;;;22.01;46.73;99476.75;5109352;28;20213;-62
2023/09/09 18:42:15;;;;;;;2.70;1.93;;;;;;;21.95;47.14;99473.06;5109344;28;20242;-61
2023/09/09 18:44:42;;;;;;;4.50;2.20;;;;;;;21.93;47.24;99477.63;5108413;28;20258;-63
2023/09/09 18:47:09;;;;;;;4.00;1.77;;;;;;;21.90;47.42;99481.41;5109277;28;20207;-62
2023/09/09 18:49:36;;;;;;;3.27;1.97;;;;;;;21.88;47.25;99483.38;5109299;28;20204;-62
2023/09/09 18:52:03;;;;;;;6.13;1.77;;;;;;;21.86;47.35;99493.13;5109462;28;20203;-62
2023/09/09 18:54:31;;;;;;;4.73;2.00;;;;;;;21.80;47.92;99485.22;5109347;28;20593;-62
2023/09/09 18:56:58;;;;;;;2.63;1.70;;;;;;;21.75;46.93;99484.91;5109318;28;20211;-62
2023/09/09 18:59:25;;;;;;;1.57;1.40;;;;;;;21.73;46.11;99482.50;5109020;28;20591;-62
2023/09/09 19:01:52;;;;;;;3.20;1.70;;;;;;;21.73;46.28;99489.47;5109013;28;20201;-62
2023/09/09 19:04:20;;;;;;;2.23;1.70;;;;;;;21.71;46.68;99484.47;5109531;28;20196;-62
2023/09/09 19:06:46;;;;;;;3.53;1.87;;;;;;;21.68;46.56;99487.41;5109050;28;20324;-62
2023/09/09 19:09:15;;;;;;;2.57;1.80;;;;;;;21.66;46.99;99490.16;5109026;28;20206;-62
2023/09/09 19:11:43;;;;;;;3.90;1.47;;;;;;;21.64;47.27;99488.72;5108787;28;20195;-62
2023/09/09 19:14:10;;;;;;;3.13;1.50;;;;;;;21.63;48.06;99489.72;5109127;28;20223;-62
2023/09/09 19:16:36;;;;;;;5.57;1.53;;;;;;;21.61;47.62;99486.47;5109051;28;20335;-62
2023/09/09 19:19:03;;;;;;;1.60;1.50;;;;;;;21.58;48.52;99502.41;5108833;28;20199;-62
2023/09/09 19:21:31;;;;;;;2.13;1.60;;;;;;;21.55;48.62;99497.56;5108928;28;20195;-61
2023/09/09 19:23:58;;;;;;;3.50;1.60;;;;;;;21.53;48.72;99489.13;5108683;28;20298;-63
2023/09/09 19:26:24;;;;;;;1.90;1.60;;;;;;;21.51;48.50;99496.28;5108827;28;20211;-62
2023/09/09 19:28:52;;;;;;;2.50;1.80;;;;;;;21.45;49.15;99497.78;5108411;28;20199;-62
2023/09/09 19:31:20;;;;;;;3.27;1.60;;;;;;;21.45;48.94;99498.59;5108859;28;20199;-62
2023/09/09 19:33:47;;;;;;;2.10;1.30;;;;;;;21.42;48.82;99493.72;5108436;28;20211;-62
2023/09/09 19:36:14;;;;;;;2.27;1.50;;;;;;;21.40;49.17;99500.09;5108943;28;20677;-62
2023/09/09 19:38:41;;;;;;;2.17;1.57;;;;;;;21.40;48.77;99490.47;5108739;28;20207;-62
2023/09/09 19:41:07;;;;;;;3.00;1.90;;;;;;;21.37;47.73;99496.03;5108899;28;20240;-62
2023/09/09 19:43:34;;;;;;;2.20;1.50;;;;;;;21.30;49.19;99502.88;5108487;28;20231;-62
2023/09/09 19:46:02;;;;;;;2.10;1.50;;;;;;;21.30;49.26;99499.47;5108278;28;20199;-62
2023/09/09 19:48:29;;;;;;;2.33;1.53;;;;;;;21.25;49.26;99497.38;5108365;28;20255;-62